Time;durP1;ratioP1;P1;durP2;ratioP2;P2;SDS_P1;SDS_P2;PMS_P1;PMS_P2;Temp;Humidity;BMP_temperature;BMP_pressure;BME280_temperature;BME280_humidity;BME280_pressure;Samples;Min_cycle;Max_cycle;Signal;HPM_P1;HPM_P2
2022/02/27 00:00:18;;;;;;;273.60;159.70;;;;;;;0.06;70.92;102422.97;108749;1273;21994;-76
2022/02/27 00:03:10;;;;;;;268.60;157.70;;;;;;;0.03;70.87;102417.88;108800;1272;21987;-78
2022/02/27 00:05:39;;;;;;;283.10;161.60;;;;;;;-0.01;70.85;102419.39;108723;1273;22004;-76
2022/02/27 00:08:10;;;;;;;276.40;161.90;;;;;;;-0.04;70.96;102416.88;108693;1273;24994;-76
2022/02/27 00:10:39;;;;;;;292.90;169.50;;;;;;;-0.07;71.02;102414.20;108834;1272;23703;-77
2022/02/27 00:13:08;;;;;;;330.30;196.10;;;;;;;-0.08;71.06;102420.98;108937;1272;21997;-76
2022/02/27 00:15:37;;;;;;;335.00;200.70;;;;;;;-0.10;71.08;102426.75;108963;1272;22695;-77
2022/02/27 00:18:06;;;;;;;323.90;193.50;;;;;;;-0.12;70.99;102428.06;108833;1272;21996;-76
2022/02/27 00:20:35;;;;;;;304.00;178.80;;;;;;;-0.15;71.07;102430.38;108761;1272;22033;-76
2022/02/27 00:23:04;;;;;;;312.90;185.10;;;;;;;-0.16;71.16;102432.51;108824;1272;21998;-77
2022/02/27 00:25:33;;;;;;;312.50;182.60;;;;;;;-0.19;71.15;102431.55;108914;1272;24600;-77
2022/02/27 00:28:02;;;;;;;307.60;181.30;;;;;;;-0.21;71.33;102425.21;108872;1272;23801;-77
2022/02/27 00:30:32;;;;;;;305.60;179.40;;;;;;;-0.24;71.38;102429.45;108712;1275;21993;-76
2022/02/27 00:33:00;;;;;;;292.90;171.80;;;;;;;-0.27;71.53;102432.48;108724;1272;23644;-77
2022/02/27 00:35:30;;;;;;;303.90;183.00;;;;;;;-0.28;71.59;102427.85;108720;1273;24670;-75
2022/02/27 00:37:59;;;;;;;303.00;175.00;;;;;;;-0.30;71.60;102426.52;108715;1272;22051;-75
2022/02/27 00:40:28;;;;;;;275.30;163.80;;;;;;;-0.31;71.64;102425.34;108733;1272;22007;-76
2022/02/27 00:43:00;;;;;;;280.30;164.80;;;;;;;-0.32;71.72;102426.74;108644;1275;21990;-75
2022/02/27 00:45:29;;;;;;;287.20;167.00;;;;;;;-0.32;71.71;102424.69;108698;1272;22215;-76
2022/02/27 00:47:58;;;;;;;295.20;170.80;;;;;;;-0.33;71.68;102430.25;108677;1272;22318;-75
2022/02/27 00:50:27;;;;;;;274.20;163.90;;;;;;;-0.35;71.56;102430.31;108705;1272;23628;-76
2022/02/27 00:52:57;;;;;;;299.20;167.40;;;;;;;-0.38;71.53;102431.27;108668;1272;21990;-76
2022/02/27 00:55:27;;;;;;;305.00;170.70;;;;;;;-0.41;71.58;102430.83;108786;1270;23608;-77
2022/02/27 00:57:56;;;;;;;299.80;172.90;;;;;;;-0.43;71.58;102430.92;108690;1271;21991;-77
2022/02/27 01:00:26;;;;;;;293.50;172.20;;;;;;;-0.46;71.60;102425.27;108821;1270;21988;-76
2022/02/27 01:02:56;;;;;;;299.30;170.40;;;;;;;-0.48;71.68;102423.77;108741;1270;22010;-76
2022/02/27 01:05:28;;;;;;;287.00;167.40;;;;;;;-0.50;71.78;102422.77;108731;1273;22861;-76
2022/02/27 01:07:57;;;;;;;283.60;166.70;;;;;;;-0.52;71.82;102424.40;108754;1272;23079;-76
2022/02/27 01:10:31;;;;;;;280.70;161.70;;;;;;;-0.53;71.78;102424.62;108789;1272;22222;-76
2022/02/27 01:13:00;;;;;;;283.10;164.60;;;;;;;-0.56;71.73;102429.02;108748;1272;22787;-76
2022/02/27 01:15:30;;;;;;;276.00;159.50;;;;;;;-0.58;71.72;102428.05;108841;1270;21985;-75
2022/02/27 01:18:00;;;;;;;274.90;157.10;;;;;;;-0.61;71.76;102422.44;108745;1273;22517;-76
2022/02/27 01:20:32;;;;;;;281.40;156.00;;;;;;;-0.62;71.86;102422.98;108813;1270;21997;-76
2022/02/27 01:23:00;;;;;;;255.40;149.50;;;;;;;-0.64;71.88;102423.39;108685;1272;21994;-76
2022/02/27 01:25:29;;;;;;;253.90;148.30;;;;;;;-0.66;71.86;102423.11;108646;1272;23625;-77
2022/02/27 01:27:58;;;;;;;260.30;145.90;;;;;;;-0.69;71.90;102421.95;108669;1272;23748;-76
2022/02/27 01:30:27;;;;;;;254.50;147.10;;;;;;;-0.70;71.92;102422.70;108780;1270;21985;-76
2022/02/27 01:32:56;;;;;;;225.40;133.60;;;;;;;-0.72;72.03;102423.97;108752;1272;23123;-76
2022/02/27 01:35:25;;;;;;;236.50;136.50;;;;;;;-0.73;72.01;102423.49;108754;1270;23783;-76
2022/02/27 01:37:55;;;;;;;229.40;134.30;;;;;;;-0.76;72.07;102418.54;108803;1272;23012;-75
2022/02/27 01:40:25;;;;;;;228.10;133.60;;;;;;;-0.79;72.15;102415.85;108777;1272;21994;-76
2022/02/27 01:42:54;;;;;;;225.00;130.60;;;;;;;-0.80;72.23;102418.48;108759;1272;22078;-75
2022/02/27 01:45:24;;;;;;;218.40;128.60;;;;;;;-0.82;72.22;102419.74;108759;1270;22012;-76
2022/02/27 01:47:52;;;;;;;197.10;124.30;;;;;;;-0.83;72.26;102419.77;108756;1272;22008;-76
2022/02/27 01:50:21;;;;;;;192.60;118.90;;;;;;;-0.83;72.35;102419.79;108748;1273;21989;-76
2022/02/27 01:52:50;;;;;;;187.70;113.50;;;;;;;-0.82;72.48;102418.21;108885;1270;22221;-76
2022/02/27 01:55:19;;;;;;;176.00;112.10;;;;;;;-0.81;72.59;102417.30;108748;1272;22000;-77
2022/02/27 01:57:49;;;;;;;181.60;111.90;;;;;;;-0.78;72.83;102416.34;108790;1273;21992;-77
2022/02/27 02:00:19;;;;;;;176.80;110.00;;;;;;;-0.75;72.86;102414.86;108740;1270;22040;-76
2022/02/27 02:02:48;;;;;;;163.70;103.10;;;;;;;-0.72;72.91;102414.11;108795;1272;22225;-77
2022/02/27 02:05:18;;;;;;;161.00;103.80;;;;;;;-0.69;72.94;102415.06;108758;1270;23018;-77
2022/02/27 02:07:48;;;;;;;149.50;97.70;;;;;;;-0.70;72.79;102411.10;108705;1272;21991;-76
2022/02/27 02:10:17;;;;;;;145.10;90.60;;;;;;;-0.71;72.76;102410.45;108694;1272;21992;-77
2022/02/27 02:12:51;;;;;;;143.40;95.50;;;;;;;-0.73;72.75;102411.00;108782;1271;21990;-77
2022/02/27 02:15:20;;;;;;;159.10;95.10;;;;;;;-0.75;72.75;102412.79;108792;1271;21998;-76
2022/02/27 02:17:51;;;;;;;144.40;90.70;;;;;;;-0.76;72.71;102411.62;108749;1270;23777;-77
2022/02/27 02:20:21;;;;;;;138.20;88.90;;;;;;;-0.77;72.75;102409.74;108807;1270;21994;-77
2022/02/27 02:22:56;;;;;;;143.80;91.70;;;;;;;-0.77;72.88;102411.13;108738;1272;22313;-77
2022/02/27 02:25:25;;;;;;;137.70;86.70;;;;;;;-0.77;72.96;102413.55;108730;1270;21993;-75
2022/02/27 02:27:57;;;;;;;121.60;78.10;;;;;;;-0.75;72.99;102410.73;108819;1272;21979;-76
2022/02/27 02:30:26;;;;;;;115.40;75.60;;;;;;;-0.71;73.28;102404.56;108728;1272;21997;-75
2022/02/27 02:32:58;;;;;;;119.70;77.20;;;;;;;-0.67;73.46;102405.30;108750;1272;21996;-75
2022/02/27 02:35:28;;;;;;;119.60;82.30;;;;;;;-0.64;73.38;102406.94;108799;1272;21994;-76
2022/02/27 02:37:58;;;;;;;128.90;85.30;;;;;;;-0.63;73.29;102409.18;108742;1272;22039;-76
2022/02/27 02:40:27;;;;;;;136.80;85.90;;;;;;;-0.66;73.05;102414.45;108701;1273;23080;-76
2022/02/27 02:42:58;;;;;;;122.40;85.20;;;;;;;-0.70;72.86;102415.45;108701;1272;22008;-76
2022/02/27 02:45:27;;;;;;;125.10;83.30;;;;;;;-0.75;72.76;102415.39;108781;1272;21988;-76
2022/02/27 02:47:59;;;;;;;130.00;84.20;;;;;;;-0.79;72.68;102418.13;108754;1270;22213;-76
2022/02/27 02:50:30;;;;;;;119.90;81.20;;;;;;;-0.83;72.71;102421.34;108765;1272;24339;-76
2022/02/27 02:52:59;;;;;;;120.30;81.70;;;;;;;-0.87;72.69;102428.72;108721;1272;21995;-76
2022/02/27 02:55:29;;;;;;;123.00;82.50;;;;;;;-0.92;72.64;102428.69;108852;1270;23004;-76
2022/02/27 02:58:00;;;;;;;127.10;83.70;;;;;;;-0.97;72.67;102429.52;108780;1271;23620;-76
2022/02/27 03:00:29;;;;;;;126.30;81.20;;;;;;;-1.02;72.75;102434.15;108752;1272;21994;-76
2022/02/27 03:02:58;;;;;;;126.20;81.30;;;;;;;-1.07;72.87;102435.51;108772;1273;21976;-76
2022/02/27 03:05:27;;;;;;;116.30;79.90;;;;;;;-1.11;73.06;102435.43;108760;1272;21989;-76
2022/02/27 03:07:56;;;;;;;123.80;82.70;;;;;;;-1.11;73.26;102436.12;108771;1272;21994;-76
2022/02/27 03:10:25;;;;;;;121.10;80.80;;;;;;;-1.09;73.42;102439.86;108788;1270;21994;-75
2022/02/27 03:12:54;;;;;;;120.80;80.30;;;;;;;-1.05;73.46;102444.78;108760;1272;22468;-77
2022/02/27 03:15:23;;;;;;;113.80;79.50;;;;;;;-1.01;73.60;102450.55;108709;1273;22044;-76
2022/02/27 03:17:52;;;;;;;111.50;76.60;;;;;;;-0.96;73.74;102448.66;108791;1270;22090;-77
2022/02/27 03:20:21;;;;;;;98.80;68.90;;;;;;;-0.87;73.99;102454.65;108699;1272;22000;-77
2022/02/27 03:22:50;;;;;;;88.60;63.10;;;;;;;-0.74;74.41;102459.13;108816;1273;22111;-77
2022/02/27 03:25:19;;;;;;;81.90;61.10;;;;;;;-0.60;74.66;102461.67;108821;1272;21989;-77
2022/02/27 03:27:49;;;;;;;87.40;60.70;;;;;;;-0.45;74.90;102462.29;108734;1273;22832;-77
2022/02/27 03:30:19;;;;;;;66.30;47.10;;;;;;;-0.31;75.05;102466.02;108689;1270;22050;-76
2022/02/27 03:32:48;;;;;;;62.50;40.50;;;;;;;-0.16;75.27;102467.67;108821;1270;22009;-77
2022/02/27 03:35:19;;;;;;;46.10;37.00;;;;;;;-0.01;75.50;102464.25;108803;1270;23011;-76
2022/02/27 03:37:50;;;;;;;47.60;35.30;;;;;;;0.13;75.69;102464.15;108845;1270;23699;-76
2022/02/27 03:40:20;;;;;;;47.20;35.00;;;;;;;0.27;75.88;102465.95;108787;1270;21988;-76
2022/02/27 03:42:49;;;;;;;45.10;34.50;;;;;;;0.39;75.91;102467.98;108762;1273;23806;-76
2022/02/27 03:45:19;;;;;;;46.50;35.10;;;;;;;0.51;76.02;102472.28;108761;1273;23061;-76
2022/02/27 03:47:48;;;;;;;49.70;33.10;;;;;;;0.61;76.00;102475.94;108757;1270;23014;-76
2022/02/27 03:50:18;;;;;;;46.00;32.30;;;;;;;0.70;76.17;102479.45;108796;1272;22025;-76
2022/02/27 03:52:48;;;;;;;40.10;31.50;;;;;;;0.78;76.23;102476.21;108670;1271;22003;-76
2022/02/27 03:55:18;;;;;;;44.20;32.50;;;;;;;0.87;76.28;102473.66;108736;1270;22404;-75
2022/02/27 03:57:47;;;;;;;36.40;29.90;;;;;;;0.96;76.35;102473.17;108744;1272;22001;-76
2022/02/27 04:00:19;;;;;;;39.00;27.40;;;;;;;1.03;76.40;102471.36;108861;1273;22015;-76
2022/02/27 04:02:48;;;;;;;35.80;27.30;;;;;;;1.09;76.41;102474.29;108702;1272;23055;-77
2022/02/27 04:05:18;;;;;;;30.60;27.10;;;;;;;1.15;76.49;102478.20;108674;1272;21957;-77
2022/02/27 04:07:47;;;;;;;36.60;27.80;;;;;;;1.22;76.50;102480.08;108773;1272;22180;-78
2022/02/27 04:10:16;;;;;;;38.20;27.30;;;;;;;1.27;76.53;102481.45;108747;1273;23794;-75
2022/02/27 04:12:45;;;;;;;32.40;26.90;;;;;;;1.32;76.53;102480.91;108757;1273;22001;-76
2022/02/27 04:15:15;;;;;;;31.60;26.00;;;;;;;1.37;76.59;102481.79;108724;1272;21994;-75
2022/02/27 04:17:44;;;;;;;32.10;25.60;;;;;;;1.41;76.54;102486.14;108818;1270;21987;-75
2022/02/27 04:20:13;;;;;;;34.60;25.40;;;;;;;1.44;76.53;102488.45;108743;1270;21995;-76
2022/02/27 04:22:42;;;;;;;30.70;26.70;;;;;;;1.48;76.60;102489.52;108757;1270;21986;-76
2022/02/27 04:25:11;;;;;;;36.90;28.00;;;;;;;1.52;76.62;102488.66;108719;1272;23052;-75
2022/02/27 04:27:40;;;;;;;31.90;27.00;;;;;;;1.56;76.67;102487.69;108773;1273;23803;-76
2022/02/27 04:30:09;;;;;;;30.10;25.40;;;;;;;1.59;76.70;102487.36;108775;1273;21993;-75
2022/02/27 04:32:38;;;;;;;29.70;26.30;;;;;;;1.61;76.74;102482.08;108699;1272;22970;-76
2022/02/27 04:35:08;;;;;;;32.10;26.60;;;;;;;1.63;76.66;102479.59;108760;1272;21987;-75
2022/02/27 04:37:37;;;;;;;31.60;26.00;;;;;;;1.65;76.70;102480.54;108737;1273;23091;-76
2022/02/27 04:40:06;;;;;;;35.10;26.40;;;;;;;1.68;76.72;102479.22;108766;1273;22004;-76
2022/02/27 04:42:35;;;;;;;30.90;26.70;;;;;;;1.71;76.71;102477.55;108796;1273;23732;-77
2022/02/27 04:45:08;;;;;;;28.60;25.10;;;;;;;1.72;76.62;102485.30;108751;1272;21993;-77
2022/02/27 04:47:37;;;;;;;34.30;27.30;;;;;;;1.73;76.68;102482.86;108829;1270;21990;-76
2022/02/27 04:50:07;;;;;;;37.30;28.20;;;;;;;1.75;76.77;102485.38;108750;1270;23055;-75
2022/02/27 04:52:36;;;;;;;35.70;27.80;;;;;;;1.77;76.68;102488.23;108778;1272;21994;-76
2022/02/27 04:55:06;;;;;;;32.30;28.50;;;;;;;1.80;76.72;102492.84;108786;1270;21976;-75
2022/02/27 04:57:35;;;;;;;37.40;29.40;;;;;;;1.80;76.68;102495.63;108841;1270;23088;-75
2022/02/27 05:00:07;;;;;;;34.00;27.30;;;;;;;1.82;76.74;102498.14;108795;1270;22982;-77
2022/02/27 05:02:37;;;;;;;27.30;24.10;;;;;;;1.85;76.80;102499.20;108771;1272;22955;-76
2022/02/27 05:05:07;;;;;;;30.10;23.90;;;;;;;1.86;76.65;102502.14;108778;1273;22983;-76
2022/02/27 05:07:39;;;;;;;;;;;;;;;1.86;76.68;102499.17;108362;1276;22003;-76
2022/02/27 05:10:09;;;;;;;27.40;23.90;;;;;;;1.79;76.80;102503.81;108400;1275;21998;-76
2022/02/27 05:12:42;;;;;;;29.60;23.30;;;;;;;1.78;76.82;102505.39;108439;1276;22007;-77
2022/02/27 05:15:14;;;;;;;28.00;23.00;;;;;;;1.80;76.84;102511.42;108464;1276;23734;-77
2022/02/27 05:17:43;;;;;;;30.40;23.90;;;;;;;1.81;76.77;102515.70;108387;1275;22772;-76
2022/02/27 05:20:13;;;;;;;32.80;25.70;;;;;;;1.84;76.82;102521.18;108400;1276;21968;-75
2022/02/27 05:22:47;;;;;;;32.90;24.30;;;;;;;1.86;76.82;102517.63;108444;1275;22965;-77
2022/02/27 05:25:21;;;;;;;26.70;22.70;;;;;;;1.87;76.77;102522.43;108503;1273;22426;-76
2022/02/27 05:27:53;;;;;;;28.00;22.10;;;;;;;1.90;76.77;102523.21;108831;1270;22761;-76
2022/02/27 05:30:24;;;;;;;28.00;22.80;;;;;;;1.91;76.67;102525.95;108709;1271;22916;-76
2022/02/27 05:32:53;;;;;;;32.10;24.50;;;;;;;1.91;76.53;102525.77;108704;1273;22919;-75
2022/02/27 05:35:22;;;;;;;29.30;24.30;;;;;;;1.92;76.62;102529.05;108787;1272;22971;-76
2022/02/27 05:37:51;;;;;;;31.30;23.20;;;;;;;1.94;76.75;102530.88;108731;1272;24443;-76
2022/02/27 05:40:20;;;;;;;34.50;24.00;;;;;;;1.97;76.68;102528.17;108728;1273;22008;-77
2022/02/27 05:42:49;;;;;;;29.60;23.80;;;;;;;1.99;76.63;102528.77;108747;1272;21996;-76
2022/02/27 05:45:18;;;;;;;27.40;24.10;;;;;;;2.01;76.59;102532.17;108573;1272;23746;-76
2022/02/27 05:47:47;;;;;;;29.10;23.80;;;;;;;2.02;76.53;102532.65;108749;1272;22061;-75
2022/02/27 05:50:16;;;;;;;30.10;23.60;;;;;;;2.03;76.50;102537.32;108709;1273;23732;-76
2022/02/27 05:52:45;;;;;;;31.80;23.70;;;;;;;2.06;76.63;102536.83;108691;1272;23742;-76
2022/02/27 05:55:14;;;;;;;29.40;21.80;;;;;;;2.09;76.45;102537.27;108805;1272;21996;-76
2022/02/27 05:57:43;;;;;;;26.60;22.70;;;;;;;2.09;76.33;102539.17;108794;1272;23080;-77
2022/02/27 06:00:12;;;;;;;26.60;22.20;;;;;;;2.07;76.32;102542.55;108704;1272;23639;-76
2022/02/27 06:02:41;;;;;;;24.00;21.40;;;;;;;2.06;76.18;102543.46;108725;1272;22018;-77
2022/02/27 06:05:11;;;;;;;28.30;22.30;;;;;;;2.02;76.07;102544.98;108566;1273;22073;-76
2022/02/27 06:07:40;;;;;;;25.30;22.60;;;;;;;1.97;76.01;102550.05;108770;1272;22001;-76
2022/02/27 06:10:09;;;;;;;28.20;25.20;;;;;;;1.93;76.16;102551.59;108722;1272;22351;-75
2022/02/27 06:12:45;;;;;;;35.70;25.30;;;;;;;1.93;76.28;102554.41;108797;1272;21998;-76
2022/02/27 06:15:16;;;;;;;29.20;24.40;;;;;;;1.92;76.36;102555.29;108752;1272;23635;-76
2022/02/27 06:17:50;;;;;;;29.20;24.20;;;;;;;1.92;76.28;102559.45;108831;1273;22093;-80
2022/02/27 06:20:20;;;;;;;26.30;23.50;;;;;;;1.92;76.38;102556.68;108587;1272;22018;-79
2022/02/27 06:22:50;;;;;;;29.00;25.60;;;;;;;1.92;76.34;102559.27;108587;1276;22001;-77
2022/02/27 06:25:20;;;;;;;30.90;24.90;;;;;;;1.94;76.34;102558.52;108598;1275;22077;-78
2022/02/27 06:27:49;;;;;;;27.20;23.40;;;;;;;1.94;76.32;102559.21;108655;1276;22143;-78
2022/02/27 06:30:24;;;;;;;32.50;26.30;;;;;;;1.90;76.13;102564.74;108513;1275;21994;-77
2022/02/27 06:32:54;;;;;;;27.40;24.50;;;;;;;1.88;76.28;102568.98;108502;1275;22000;-77
2022/02/27 06:35:24;;;;;;;31.00;26.20;;;;;;;1.89;76.29;102567.74;108482;1275;22934;-77
2022/02/27 06:37:53;;;;;;;34.80;27.40;;;;;;;1.87;76.29;102565.88;108568;1276;22000;-76
2022/02/27 06:40:23;;;;;;;37.20;30.20;;;;;;;1.88;76.44;102576.45;108582;1273;22000;-77
2022/02/27 06:42:52;;;;;;;35.40;29.30;;;;;;;1.89;76.29;102580.91;108784;1272;21997;-76
2022/02/27 06:45:21;;;;;;;31.70;28.10;;;;;;;1.90;76.27;102580.04;108800;1273;22425;-78
2022/02/27 06:47:50;;;;;;;31.30;28.20;;;;;;;1.89;76.22;102580.58;108820;1272;21984;-77
2022/02/27 06:50:20;;;;;;;31.30;27.70;;;;;;;1.87;76.09;102587.96;108830;1272;22382;-78
2022/02/27 06:52:50;;;;;;;31.70;27.30;;;;;;;1.83;76.00;102590.52;108822;1273;22292;-78
2022/02/27 06:55:19;;;;;;;30.00;26.00;;;;;;;1.82;76.13;102590.75;108719;1273;23056;-78
2022/02/27 06:57:48;;;;;;;31.40;27.90;;;;;;;1.80;76.15;102591.69;108724;1273;23072;-77
2022/02/27 07:00:20;;;;;;;28.30;25.40;;;;;;;1.80;76.19;102590.98;108767;1272;21994;-78
2022/02/27 07:02:49;;;;;;;29.20;25.70;;;;;;;1.79;76.11;102593.13;108798;1272;23645;-78
2022/02/27 07:05:18;;;;;;;30.50;27.10;;;;;;;1.75;76.02;102596.73;108703;1273;21991;-78
2022/02/27 07:07:48;;;;;;;32.50;29.00;;;;;;;1.74;76.23;102598.31;108767;1272;21939;-78
2022/02/27 07:10:17;;;;;;;33.40;29.70;;;;;;;1.77;76.42;102601.34;108733;1273;24116;-78
2022/02/27 07:12:47;;;;;;;34.40;30.40;;;;;;;1.81;76.45;102602.61;108579;1273;218002;-77
2022/02/27 07:15:16;;;;;;;41.00;36.70;;;;;;;1.83;76.42;102601.46;108834;1270;23025;-77
2022/02/27 07:17:47;;;;;;;36.40;32.00;;;;;;;1.85;76.41;102605.23;108953;1270;21981;-77
2022/02/27 07:20:17;;;;;;;34.80;30.20;;;;;;;1.83;76.16;102605.30;108784;1273;24169;-77
2022/02/27 07:22:47;;;;;;;38.30;32.10;;;;;;;1.78;75.94;102608.81;108556;1276;21997;-77
2022/02/27 07:25:19;;;;;;;36.00;32.30;;;;;;;1.75;76.05;102613.43;108518;1276;21995;-77
2022/02/27 07:27:52;;;;;;;34.80;31.10;;;;;;;1.72;76.14;102616.30;108461;1277;23770;-76
2022/02/27 07:30:21;;;;;;;35.20;31.50;;;;;;;1.73;76.24;102613.66;108502;1276;21995;-79
2022/02/27 07:32:49;;;;;;;37.70;33.60;;;;;;;1.73;76.16;102612.27;108559;1276;21994;-76
2022/02/27 07:35:21;;;;;;;36.50;32.50;;;;;;;1.71;76.21;102613.71;108772;1274;21991;-76
2022/02/27 07:37:50;;;;;;;40.40;33.80;;;;;;;1.73;76.29;102614.02;108786;1273;22018;-76
2022/02/27 07:40:19;;;;;;;33.00;29.20;;;;;;;1.74;76.24;102616.75;108608;1272;21997;-76
2022/02/27 07:42:48;;;;;;;36.10;32.30;;;;;;;1.74;76.19;102616.94;108777;1273;21998;-77
2022/02/27 07:45:18;;;;;;;37.20;33.10;;;;;;;1.76;76.32;102616.67;108815;1272;23052;-77
2022/02/27 07:47:49;;;;;;;;;;;;;;;1.77;76.25;102616.98;108722;1273;23689;-78
2022/02/27 07:50:20;;;;;;;38.70;33.30;;;;;;;1.70;76.29;102624.70;108898;1272;22007;-77
2022/02/27 07:52:49;;;;;;;41.90;35.10;;;;;;;1.70;76.43;102623.86;108832;1273;23622;-77
2022/02/27 07:55:20;;;;;;;41.90;35.80;;;;;;;1.73;76.42;102627.39;108791;1272;21988;-77
2022/02/27 07:57:49;;;;;;;38.80;34.70;;;;;;;1.78;76.44;102631.55;108694;1273;22766;-78
2022/02/27 08:00:19;;;;;;;33.80;30.30;;;;;;;1.82;76.60;102633.13;108990;1272;23648;-78
2022/02/27 08:02:48;;;;;;;32.30;29.00;;;;;;;1.84;76.36;102634.10;109224;1272;22967;-76
2022/02/27 08:05:18;;;;;;;34.90;31.10;;;;;;;1.85;76.24;102639.11;108843;1273;21997;-78
2022/02/27 08:07:47;;;;;;;43.10;36.50;;;;;;;1.87;76.23;102640.78;108809;1273;22759;-78
2022/02/27 08:10:16;;;;;;;31.90;28.70;;;;;;;1.90;76.38;102637.73;108772;1272;24349;-78
2022/02/27 08:12:46;;;;;;;35.70;32.00;;;;;;;1.95;76.41;102634.42;108795;1273;23059;-77
2022/02/27 08:15:16;;;;;;;40.30;36.20;;;;;;;1.97;76.19;102636.27;108793;1273;21994;-77
2022/02/27 08:17:46;;;;;;;42.50;37.90;;;;;;;1.99;76.27;102634.79;108728;1272;21992;-77
2022/02/27 08:20:14;;;;;;;31.20;28.10;;;;;;;2.02;76.17;102635.55;108780;1273;22246;-78
2022/02/27 08:22:43;;;;;;;36.60;32.90;;;;;;;2.01;76.00;102634.04;108755;1273;22001;-76
2022/02/27 08:25:15;;;;;;;32.80;29.30;;;;;;;2.03;76.13;102632.37;108776;1272;22997;-77
2022/02/27 08:27:45;;;;;;;30.60;27.40;;;;;;;2.07;75.93;102631.02;108758;1272;22014;-76
2022/02/27 08:30:14;;;;;;;32.30;29.00;;;;;;;2.05;75.72;102628.81;108650;1273;23662;-77
2022/02/27 08:32:43;;;;;;;32.50;29.10;;;;;;;2.06;75.78;102625.85;108782;1273;21999;-77
2022/02/27 08:35:12;;;;;;;36.60;32.00;;;;;;;2.10;75.86;102622.70;108786;1273;22869;-77
2022/02/27 08:37:40;;;;;;;34.50;31.10;;;;;;;2.19;76.02;102623.78;108783;1272;23731;-77
2022/02/27 08:40:12;;;;;;;34.70;31.00;;;;;;;2.24;75.64;102619.43;108763;1273;22264;-77
2022/02/27 08:42:41;;;;;;;37.50;33.60;;;;;;;2.23;75.43;102619.80;108684;1273;22448;-78
2022/02/27 08:45:11;;;;;;;38.30;34.40;;;;;;;2.29;75.61;102620.60;108787;1272;23768;-77
2022/02/27 08:47:40;;;;;;;32.90;29.50;;;;;;;2.36;75.47;102619.66;108904;1272;22270;-77
2022/02/27 08:50:09;;;;;;;33.40;30.00;;;;;;;2.39;75.15;102621.64;108816;1272;22069;-77
2022/02/27 08:52:39;;;;;;;35.00;31.60;;;;;;;2.38;74.96;102620.48;108783;1272;23023;-77
2022/02/27 08:55:10;;;;;;;37.00;33.00;;;;;;;2.42;75.12;102617.69;108781;1273;21999;-77
2022/02/27 08:57:39;;;;;;;35.50;31.80;;;;;;;2.48;75.03;102611.52;108868;1272;22221;-77
2022/02/27 09:00:11;;;;;;;41.70;35.00;;;;;;;2.50;74.67;102612.85;108752;1272;23070;-77
2022/02/27 09:02:41;;;;;;;39.80;35.70;;;;;;;2.54;74.77;102614.77;108763;1272;22079;-77
2022/02/27 09:05:11;;;;;;;36.20;32.80;;;;;;;2.53;74.27;102615.34;108831;1272;23615;-77
2022/02/27 09:07:40;;;;;;;35.20;31.40;;;;;;;2.52;74.20;102612.27;108848;1273;22803;-77
2022/02/27 09:10:12;;;;;;;37.20;32.00;;;;;;;2.58;74.51;102611.52;108850;1272;21985;-76
2022/02/27 09:12:44;;;;;;;38.90;34.90;;;;;;;2.66;74.60;102613.61;108793;1273;23780;-76
2022/02/27 09:15:15;;;;;;;;;;;;;;;2.73;74.33;102608.10;108752;1271;22342;-77
2022/02/27 09:17:44;;;;;;;36.80;31.40;;;;;;;2.71;74.33;102608.38;108794;1273;23057;-77
2022/02/27 09:20:14;;;;;;;34.40;31.00;;;;;;;2.72;74.02;102610.27;108792;1272;23096;-77
2022/02/27 09:22:43;;;;;;;32.90;29.50;;;;;;;2.71;73.68;102608.89;108863;1273;23039;-77
2022/02/27 09:25:12;;;;;;;34.30;30.00;;;;;;;2.72;73.73;102610.75;108824;1273;21989;-76
2022/02/27 09:28:01;;;;;;;32.70;29.50;;;;;;;2.74;73.63;102613.27;108800;1272;23800;-77
2022/02/27 09:30:30;;;;;;;35.00;31.50;;;;;;;2.79;73.49;102610.67;108675;1273;22297;-77
2022/02/27 09:32:59;;;;;;;38.90;34.70;;;;;;;2.84;73.42;102611.52;108806;1272;22009;-76
2022/02/27 09:35:28;;;;;;;35.00;31.60;;;;;;;2.91;73.53;102614.34;108763;1272;22266;-76
2022/02/27 09:37:59;;;;;;;35.00;31.50;;;;;;;2.96;73.43;102615.69;108718;1273;22001;-77
2022/02/27 09:40:29;;;;;;;37.50;33.80;;;;;;;2.98;72.88;102613.54;108768;1272;24203;-77
2022/02/27 09:42:58;;;;;;;34.50;31.00;;;;;;;2.97;72.65;102614.44;108661;1272;21991;-77
2022/02/27 09:45:27;;;;;;;35.10;31.70;;;;;;;2.92;72.33;102611.52;108778;1272;22013;-77
2022/02/27 09:47:59;;;;;;;34.50;30.10;;;;;;;2.89;72.24;102611.13;108863;1272;23102;-78
2022/02/27 09:50:28;;;;;;;35.20;31.50;;;;;;;2.87;72.12;102607.20;108773;1272;22452;-76
2022/02/27 09:52:58;;;;;;;35.70;32.00;;;;;;;2.87;72.08;102609.13;108867;1273;22004;-77
2022/02/27 09:55:27;;;;;;;33.70;30.10;;;;;;;2.92;72.30;102606.66;108860;1273;22103;-77
2022/02/27 09:57:59;;;;;;;36.20;32.10;;;;;;;2.95;72.30;102602.34;108794;1273;22003;-77
2022/02/27 10:00:28;;;;;;;34.20;31.00;;;;;;;2.96;72.08;102604.40;108784;1273;22059;-77
2022/02/27 10:03:14;;;;;;;37.90;34.00;;;;;;;3.00;72.12;102598.30;108759;1272;22931;-77
2022/02/27 10:05:46;;;;;;;33.70;29.80;;;;;;;3.10;72.39;102595.61;108729;1272;23746;-77
2022/02/27 10:08:16;;;;;;;37.00;31.80;;;;;;;3.17;72.09;102597.60;108809;1273;22003;-77
2022/02/27 10:10:58;;;;;;;34.00;30.70;;;;;;;3.22;71.88;102594.56;108743;1272;22010;-76
2022/02/27 10:13:55;;;;;;;;;;;;;;;3.31;71.93;102599.27;108662;1273;22094;-77
2022/02/27 10:16:29;;;;;;;32.90;29.50;;;;;;;3.32;71.95;102602.01;108766;1272;21986;-78
2022/02/27 10:19:00;;;;;;;34.60;30.80;;;;;;;3.35;71.75;102601.89;108802;1272;23771;-77
2022/02/27 10:21:40;;;;;;;32.20;28.90;;;;;;;3.34;71.41;102604.16;108884;1270;23057;-76
2022/02/27 10:24:24;;;;;;;30.30;27.30;;;;;;;3.33;71.06;102605.80;108687;1273;22027;-78
2022/02/27 10:26:54;;;;;;;37.00;30.10;;;;;;;3.26;70.71;102605.55;108757;1272;21997;-78
2022/02/27 10:29:25;;;;;;;30.10;26.90;;;;;;;3.29;71.06;102604.40;108737;1272;22019;-78
2022/02/27 10:31:56;;;;;;;30.00;26.80;;;;;;;3.39;71.18;102601.71;108770;1273;24312;-78
2022/02/27 10:34:38;;;;;;;31.50;28.20;;;;;;;3.47;71.26;102596.65;108701;1275;22004;-82
2022/02/27 10:37:15;;;;;;;36.00;29.90;;;;;;;3.61;71.17;102591.88;108641;1273;22027;-76
2022/02/27 10:39:51;;;;;;;38.10;34.10;;;;;;;3.76;71.17;102585.23;108346;1278;22021;-75
2022/02/27 10:42:25;;;;;;;33.70;30.10;;;;;;;3.94;71.09;102582.89;108460;1276;21999;-78
2022/02/27 10:44:55;;;;;;;32.30;28.90;;;;;;;4.04;70.38;102586.64;108461;1278;23114;-78
2022/02/27 10:47:34;;;;;;;32.30;29.10;;;;;;;4.08;70.12;102581.89;108429;1278;22051;-77
2022/02/27 10:50:14;;;;;;;30.20;27.40;;;;;;;4.14;69.63;102584.24;108409;1277;22021;-77
2022/02/27 10:52:46;;;;;;;32.30;29.00;;;;;;;4.17;69.32;102583.05;108524;1278;22005;-78
2022/02/27 10:55:18;;;;;;;34.40;30.90;;;;;;;4.22;69.16;102582.96;108455;1278;21965;-79
2022/02/27 10:57:53;;;;;;;35.40;31.60;;;;;;;4.28;69.06;102584.11;108578;1273;22010;-77
2022/02/27 11:00:35;;;;;;;35.70;31.90;;;;;;;4.32;68.82;102582.49;108844;1273;23861;-78
2022/02/27 11:03:10;;;;;;;38.90;33.20;;;;;;;4.37;68.46;102577.76;108828;1273;21987;-77
2022/02/27 11:05:42;;;;;;;38.30;34.60;;;;;;;4.40;68.32;102577.76;108727;1273;22008;-78
2022/02/27 11:08:13;;;;;;;33.40;30.20;;;;;;;4.48;68.39;102576.67;108738;1273;23612;-76
2022/02/27 11:10:42;;;;;;;37.40;33.60;;;;;;;4.54;67.95;102576.73;108776;1273;24241;-78
2022/02/27 11:13:14;;;;;;;35.30;31.40;;;;;;;4.57;67.71;102573.10;108920;1273;21965;-77
2022/02/27 11:15:43;;;;;;;38.30;34.40;;;;;;;4.59;67.48;102571.80;108926;1275;22021;-77
2022/02/27 11:18:16;;;;;;;49.10;35.30;;;;;;;4.58;67.14;102571.50;108836;1272;23716;-77